Stewart J. Cort — WDC6055 — position and weather

sailwx.info

Track history (hours):
 
Tides and Currents Weather Stations Pressure Air Temp Water Temp Dewpoint Dewpoint Depression Visibility Wind Speed Wind Dir Waves Ship Positions

Stewart J. Cort

Owner: THE INTERLAKE STEAMSHIP COMPANY, Middleburg Heights, OH. More information available from US FCC via Universal Licensing System and Coast Guard Vessel Documentation Center.

Last reported at 2017-Dec-08 15:00 UTC. Time now 2017-Dec-11 04:15 UTC.
Position N 45°06' W 086°54'.

Length 305 m; draft 8.6 m.

Type: Cargo ship. MMSI: 367050550.

Wind from 290 at 21 knots

Barometer 1009.9 mb
Air temperature -4.1 ° C
Water temperature 5.4 ° C

Date/timePositionNaut miles runAvg speedWind from/ knotsBaromVisibWave heightAir tempDewpointWater temp
2017-Dec-08 15:00N 45°06' W 086°54'7 7.3 290 / 211009.9 -4.1 5.4
2017-Dec-08 14:00N 45°12' W 086°48'1312.7 280 / 231009.3 -4.0 4.6
2017-Dec-08 13:00N 45°24' W 086°42'7 7.3 290 / 281008.3 -4.0 4.3
2017-Dec-08 12:00N 45°30' W 086°36'1010.3 280 / 221007.9 -4.1 6.1
2017-Dec-08 11:00N 45°36' W 086°24'1 7.5 270 / 211007.6 -4.0 7.1
2017-Dec-08 10:55N 45°36' W 086°25'3 8.4
2017-Dec-08 10:30N 45°37' W 086°20'4 8.3
2017-Dec-08 10:00N 45°40' W 086°15'3188.8
2017-Dec-08 10:00N 45°42' W 086°18'510.7 270 / 231007.6 -4.3 6.4
2017-Dec-08 09:30N 45°42' W 086°11'4 8.4
2017-Dec-08 09:00N 45°44' W 086°06'2155.0
2017-Dec-08 09:00N 45°42' W 086°06'612.4 260 / 201007.6 -4.3 6.2
2017-Dec-08 08:30N 45°47' W 086°00'4 8.5
2017-Dec-08 08:00N 45°48' W 085°55'147.1
2017-Dec-08 08:00N 45°48' W 085°54'4 7.8 260 / 211007.6 -4.6 5.7
2017-Dec-08 07:30N 45°50' W 085°49'4 8.4
2017-Dec-08 07:00N 45°52' W 085°44'3176.3
2017-Dec-08 07:00N 45°54' W 085°42'3 6.1 270 / 221007.6 -4.3 5.1
2017-Dec-08 06:30N 45°53' W 085°38'611.2
2017-Dec-08 06:00N 45°54' W 085°30'023.1
2017-Dec-08 06:00N 45°54' W 085°30'612.1 260 / 251007.6 -3.3 5.0
2017-Dec-08 05:30N 45°53' W 085°22'611.6
2017-Dec-08 05:00N 45°52' W 085°13'2124.9
2017-Dec-08 05:00N 45°54' W 085°12'611.5 260 / 201008.6 -2.8 4.1
2017-Dec-08 04:30N 45°52' W 085°05'611.8
2017-Dec-08 04:00N 45°50' W 084°57'3231.2
2017-Dec-08 04:00N 45°48' W 085°00'817.0 250 / 201009.3 -2.7 4.1
2017-Dec-08 03:30N 45°49' W 084°48'611.2
2017-Dec-08 03:00N 45°50' W 084°40'2124.4
2017-Dec-08 03:00N 45°48' W 084°42'714.1 250 / 211009.6 -2.5 4.9
2017-Dec-08 02:30N 45°51' W 084°33'611.9
2017-Dec-08 02:00N 45°52' W 084°25'2123.0
2017-Dec-08 02:00N 45°54' W 084°24'510.8 260 / 201010.6 -2.7 5.3
2017-Dec-08 01:30N 45°53' W 084°17'611.5
2017-Dec-08 01:00N 45°54' W 084°08'3168.5
2017-Dec-08 01:00N 45°54' W 084°12'816.8 260 / 201011.0 -2.8 5.0
2017-Dec-08 00:30N 45°55' W 084°00'510.1
2017-Dec-08 00:00N 45°57' W 083°54'3220.2
2017-Dec-08 00:00N 45°54' W 083°54'1212.3 280 / 191011.3 -3.2 3.9
2017-Dec-07 23:03N 46°05' W 084°01'010.5
2017-Dec-07 23:00N 46°05' W 084°01'199.2
2017-Dec-07 23:00N 46°06' W 084°00'7 7.3 270 / 121012.0 -4.8 2.6
2017-Dec-07 22:00N 46°12' W 084°06'319.0 250 / 201012.0 -4.5 2.7
2017-Dec-07 21:49N 46°13' W 084°10'5 5.8
2017-Dec-07 21:00N 46°18' W 084°12'210.6 270 / 81011.6 -4.8 3.1
2017-Dec-07 20:46N 46°20' W 084°13'5 6.6
2017-Dec-07 20:00N 46°24' W 084°18'6 6.0 270 / 151011.0 -4.7 3.4
2017-Dec-07 19:00N 46°30' W 084°18'4 4.1 280 / 111011.0 -3.8 3.8
2017-Dec-07 18:00N 46°30' W 084°24'0 0.0 330 / 71011.5 -3.9 3.8
2017-Dec-07 17:00N 46°30' W 084°24'0 0.0 020 / 11012.2 -5.5 3.8
2017-Dec-07 16:00N 46°30' W 084°24'4 4.1 210 / 21012.9 -6.8 3.8
2017-Dec-07 15:00N 46°30' W 084°30'1010.2 190 / 31012.5 -6.6 4.5
2017-Dec-07 14:00N 46°36' W 084°42'1010.2 330 / 131012.5 -4.0 5.3
2017-Dec-07 13:00N 46°42' W 084°54'1514.5 330 / 161012.5 -4.5 5.3
2017-Dec-07 12:00N 46°54' W 085°06'1010.2 340 / 191012.2 -5.0 4.7
2017-Dec-07 11:00N 47°00' W 085°18'1413.7 340 / 171012.2 -5.2 4.6
2017-Dec-07 10:00N 47°06' W 085°36'7412.4 340 / 171012.2 -5.0 4.6
2017-Dec-07 04:00N 47°42' W 087°12'1010.1 340 / 251012.5 -5.0 4.0
2017-Dec-07 03:00N 47°48' W 087°24'1313.5 320 / 251012.5 -5.5 4.2
2017-Dec-07 02:00N 47°54' W 087°42'1010.0 330 / 221012.9 -6.0 3.9
2017-Dec-07 01:00N 48°00' W 087°54'1212.0 330 / 231012.5 -6.3 4.0
2017-Dec-07 00:00N 48°00' W 088°12'1212.0 340 / 351011.2 -6.6 4.1
2017-Dec-06 23:00N 48°00' W 088°30'1010.0 320 / 301011.5 -6.5 4.1
2017-Dec-06 22:00N 47°54' W 088°42'1313.5 320 / 301010.8 -5.6 4.3
2017-Dec-06 21:00N 47°48' W 089°00'1413.5 330 / 241010.5 -6.0 4.2
2017-Dec-06 20:00N 47°42' W 089°18'1212.1 320 / 221009.8 -6.4 4.3
2017-Dec-06 19:00N 47°42' W 089°36'1212.1 340 / 221009.5 -6.4 4.4
2017-Dec-06 18:00N 47°42' W 089°54'1212.1 320 / 231009.5 -7.0 4.4
2017-Dec-06 17:00N 47°42' W 090°12'1413.5 300 / 181009.5 -7.7 4.4
2017-Dec-06 16:00N 47°36' W 090°30'1010.1 300 / 201009.8 -8.2 4.3
2017-Dec-06 15:00N 47°30' W 090°42'1413.6 300 / 201009.5 -9.5 4.3
2017-Dec-06 14:00N 47°24' W 091°00'1010.1 310 / 191009.1 -9.4 4.2
2017-Dec-06 13:00N 47°18' W 091°12'3912.9 300 / 181009.5 -10.1 4.2
2017-Dec-06 10:00N 46°48' W 091°48'1010.2 300 / 221008.8 -8.7 3.3
2017-Dec-06 09:00N 46°42' W 092°00'0 0.0 260 / 91009.1 -8.3 -0.0
2017-Dec-06 08:00N 46°42' W 092°00'0 0.0 260 / 81008.5 -8.1 0.3
2017-Dec-06 07:00N 46°42' W 092°00'0 0.0 350 / 61007.8 -7.7 0.4
2017-Dec-06 06:00N 46°42' W 092°00'0 0.0 270 / 101007.8 -7.8 0.3
2017-Dec-06 05:00N 46°42' W 092°00'0 0.0 290 / 41007.5 -7.9 0.4
2017-Dec-06 04:00N 46°42' W 092°00'0 0.0 190 / 61007.5 -7.9 0.4
2017-Dec-06 03:00N 46°42' W 092°00'0 0.0 240 / 91007.1 -8.2 0.4
2017-Dec-06 02:00N 46°42' W 092°00'0 0.0 240 / 111007.1 -8.6 0.5
2017-Dec-06 01:00N 46°42' W 092°00'0 0.0 310 / 91007.5 -8.7 0.4
2017-Dec-06 00:00N 46°42' W 092°00'0 0.0 220 / 81006.8 -8.5 0.6
2017-Dec-05 23:00N 46°42' W 092°00'0 0.0 330 / 131007.5 -8.5 1.1
2017-Dec-05 22:00N 46°42' W 092°00'0 0.0 290 / 81006.4 -7.7 0.5
2017-Dec-05 21:00N 46°42' W 092°00'0 0.0 300 / 101005.8 -8.0 1.3
2017-Dec-05 20:00N 46°42' W 092°00'0 0.0 210 / 101005.8 -8.1 0.5
2017-Dec-05 19:00N 46°42' W 092°00'0 0.0 010 / 121004.7 -8.4 1.0
2017-Dec-05 18:00N 46°42' W 092°00'0 0.0 290 / 121004.1 -8.5 0.8
2017-Dec-05 17:00N 46°42' W 092°00'0 0.0 290 / 141004.1 -8.9 0.8
2017-Dec-05 16:00N 46°42' W 092°00'0 0.0 230 / 111003.7 -8.8 1.3
2017-Dec-05 15:00N 46°42' W 092°00'0 0.0 230 / 101002.7 -8.5 0.7
2017-Dec-05 14:00N 46°42' W 092°00'0 0.0 330 / 101002.0 -7.4 0.6
2017-Dec-05 13:00N 46°42' W 092°00'0 0.0 280 / 171001.0 -6.5 0.6
2017-Dec-05 12:00N 46°42' W 092°00'1010.2 310 / 22999.0 -5.2 3.1
2017-Dec-05 11:00N 46°48' W 091°48'1010.2 260 / 31996.6 -4.6 3.7
2017-Dec-05 10:00N 46°54' W 091°36'1413.7 270 / 32994.2 -3.0 4.5
2017-Dec-05 09:00N 47°00' W 091°18'1010.1 290 / 40991.5 -2.1 4.4
2017-Dec-05 08:00N 47°06' W 091°06'1413.6 270 / 33989.2 -0.9 4.0
2017-Dec-05 07:00N 47°12' W 090°48'1212.2 280 / 32987.1 0.6 3.8
2017-Dec-05 06:00N 47°12' W 090°30'1413.6 280 / 24985.4 2.2 3.8
2017-Dec-05 05:00N 47°18' W 090°12'1413.6 290 / 19984.4 4.7 4.4
2017-Dec-05 04:00N 47°24' W 089°54'1413.6 300 / 15985.1 5.1 4.5
2017-Dec-05 03:00N 47°30' W 089°36'1212.2 230 / 15985.1 8.1 4.6
2017-Dec-05 02:00N 47°30' W 089°18'1212.2 160 / 16986.8 6.7 4.5
2017-Dec-05 01:00N 47°30' W 089°00'1212.2 130 / 18988.8 5.9 4.6
2017-Dec-05 00:00N 47°30' W 088°42'1616.2 100 / 11990.9 5.6 4.3
2017-Dec-04 23:00N 47°30' W 088°18'1212.2 130 / 13992.9 6.3 4.5
2017-Dec-04 22:00N 47°30' W 088°00'1212.2 140 / 5994.9 6.5 4.7
2017-Dec-04 21:00N 47°30' W 087°42'1818.5 150 / 12996.6 5.9 4.9
2017-Dec-04 20:00N 47°12' W 087°36'1010.1 140 / 12997.3 6.0 5.5
2017-Dec-04 19:00N 47°06' W 087°24'1413.7 140 / 14998.6 5.7 5.3
2017-Dec-04 18:00N 47°00' W 087°06'1413.7 130 / 161000.3 5.2 4.5
2017-Dec-04 17:00N 46°54' W 086°48'1212.3 140 / 171002.7 5.2 4.6
2017-Dec-04 16:00N 46°54' W 086°30'1413.7 130 / 181004.7 5.1 4.8
2017-Dec-04 15:00N 46°48' W 086°12'1212.3 130 / 201006.8 4.7 5.2
2017-Dec-04 14:00N 46°48' W 085°54'1616.4 120 / 181009.1 5.1 5.3
2017-Dec-04 13:00N 46°48' W 085°30'1212.3 140 / 251009.5 5.3 5.3
2017-Dec-04 12:00N 46°48' W 085°12'1212.3 120 / 201012.2 4.3 4.7
2017-Dec-04 11:00N 46°48' W 084°54'1312.7 130 / 201013.5 5.4 5.7
2017-Dec-04 10:00N 46°36' W 084°48'1413.8 130 / 331015.6 4.1 5.9
2017-Dec-04 09:00N 46°30' W 084°30'4 4.1 120 / 171017.6 3.2 5.4
2017-Dec-04 08:00N 46°30' W 084°24'4 4.1 110 / 91019.3 3.3 5.1
2017-Dec-04 07:00N 46°30' W 084°18'0 0.0 110 / 61019.8 3.7 5.1
2017-Dec-04 06:00N 46°30' W 084°18'6 6.0 090 / 121020.4 3.0 5.0
2017-Dec-04 05:00N 46°24' W 084°18'1010.2 110 / 51021.1 2.4 5.0
2017-Dec-04 04:00N 46°18' W 084°06'6 6.0 110 / 81020.4 2.5 4.8
2017-Dec-04 03:00N 46°12' W 084°06'7 7.3 140 / 161020.4 3.0 4.3
2017-Dec-04 02:00N 46°06' W 084°00'1312.7 130 / 81020.8 2.9 3.1
2017-Dec-04 01:00N 45°54' W 083°54'1013.7 130 / 81021.1 4.3 4.9
2017-Dec-04 00:15N 45°52' W 084°08'313.3
2017-Dec-04 00:00N 45°52' W 084°13'2152.2
2017-Dec-04 00:00N 45°54' W 084°12'816.0 110 / 41021.1 4.6 5.7
2017-Dec-03 23:30N 45°51' W 084°23'713.3
2017-Dec-03 23:00N 45°51' W 084°32'3210.8
2017-Dec-03 23:00N 45°48' W 084°30'816.0 270 / 21021.1 4.3 5.6
2017-Dec-03 22:30N 45°49' W 084°41'713.2
2017-Dec-03 22:00N 45°49' W 084°50'2137.9
2017-Dec-03 22:00N 45°48' W 084°48'917.6 260 / 81020.8 4.2 4.9
2017-Dec-03 21:30N 45°50' W 085°00'611.7
2017-Dec-03 21:00N 45°49' W 085°08'2127.6
2017-Dec-03 21:00N 45°48' W 085°06'511.0 190 / 131020.8 4.5 4.9
2017-Dec-03 20:30N 45°44' W 085°11'713.5
2017-Dec-03 20:00N 45°38' W 085°17'4252.0
2017-Dec-03 20:00N 45°42' W 085°18'919.5 210 / 111020.8 4.1 7.0
2017-Dec-03 19:30N 45°33' W 085°22'713.6
2017-Dec-03 19:00N 45°28' W 085°28'3191.5
2017-Dec-03 19:00N 45°30' W 085°30'817.1 210 / 121020.8 3.2 7.9
2017-Dec-03 18:30N 45°22' W 085°34'713.5
2017-Dec-03 18:00N 45°17' W 085°40'2118.1
2017-Dec-03 18:00N 45°18' W 085°42'714.2 160 / 121020.8 3.4 8.0
2017-Dec-03 17:30N 45°12' W 085°46'713.4
2017-Dec-03 17:00N 45°06' W 085°51'2162.8
2017-Dec-03 17:00N 45°06' W 085°48'1414.1 150 / 111020.4 4.2 7.6
2017-Dec-03 16:00N 45°00' W 086°06'1514.7 120 / 151021.1 5.6 7.3
2017-Dec-03 15:00N 44°48' W 086°18'1312.7 180 / 61021.8 5.3 7.3
2017-Dec-03 14:00N 44°36' W 086°24'1312.7 300 / 61021.5 5.8 7.8
2017-Dec-03 13:00N 44°24' W 086°30'1312.7 320 / 61021.1 4.9 7.4
2017-Dec-03 12:00N 44°12' W 086°36'1212.0 290 / 71020.8 5.3 7.1
2017-Dec-03 11:00N 44°00' W 086°36'1918.5 280 / 91020.8 5.7 7.5
2017-Dec-03 10:00N 43°42' W 086°42'1212.0 290 / 81020.1 6.3 7.9
2017-Dec-03 09:00N 43°30' W 086°42'1312.8 300 / 91019.8 6.4 8.0
2017-Dec-03 08:00N 43°18' W 086°48'9113.0 300 / 101020.4 6.7 7.5
2017-Dec-03 01:00N 41°48' W 087°06'1212.0 250 / 101020.1 9.9 8.3
2017-Dec-03 00:00N 41°36' W 087°06'0 0.0 230 / 51019.8 10.9 8.0
2017-Dec-02 23:00N 41°36' W 087°06'0 0.0 190 / 31018.8 11.2 7.5
2017-Dec-02 22:00N 41°36' W 087°06'0 0.0 190 / 71018.8 12.0 7.6
2017-Dec-02 21:00N 41°36' W 087°06'0 0.0 250 / 61019.1 13.0 7.6
2017-Dec-02 20:00N 41°36' W 087°06'0 0.0 200 / 91019.1 12.8 7.7
2017-Dec-02 19:00N 41°36' W 087°06'0 0.0 180 / 81019.1 12.8 7.8
2017-Dec-02 18:00N 41°36' W 087°06'0 0.0 160 / 61019.4 11.8 7.8
2017-Dec-02 17:00N 41°36' W 087°06'0 0.0 190 / 81020.1 10.1 7.8
2017-Dec-02 16:00N 41°36' W 087°06'0 0.0 200 / 111021.1 8.8 7.8
2017-Dec-02 15:00N 41°36' W 087°06'0 0.0 170 / 101021.5 6.2 7.8
2017-Dec-02 14:00N 41°36' W 087°06'0 0.0 170 / 101021.8 3.9 7.8
2017-Dec-02 13:00N 41°36' W 087°06'0 0.0 160 / 111021.1 4.0 8.0
2017-Dec-02 12:00N 41°36' W 087°06'0 0.0 170 / 101021.1 4.0 8.0
2017-Dec-02 11:00N 41°36' W 087°06'0 0.0 180 / 111021.1 3.7 7.9
2017-Dec-02 10:00N 41°36' W 087°06'0 0.0 160 / 101021.8 3.0 7.9
2017-Dec-02 09:00N 41°36' W 087°06'0 0.0 170 / 101021.8 3.0 8.0
2017-Dec-02 08:00N 41°36' W 087°06'0 0.0 170 / 81022.5 3.6 7.9
2017-Dec-02 07:00N 41°36' W 087°06'0 0.0 180 / 81022.1 3.5 7.9
2017-Dec-02 06:00N 41°36' W 087°06'0 0.0 170 / 71022.5 3.9 8.1
2017-Dec-02 05:00N 41°36' W 087°06'1212.0 180 / 71022.8 5.1 7.6
2017-Dec-02 04:00N 41°48' W 087°06'1212.0 170 / 101022.1 5.4 7.1 8.6
2017-Dec-02 03:00N 42°00' W 087°06'10912.1 180 / 101021.8 8.3 7.8
2017-Dec-01 18:00N 43°48' W 086°48'1312.8 200 / 131022.8 6.4 8.2
2017-Dec-01 17:00N 44°00' W 086°42'1312.8 210 / 111023.2 6.2 7.5
2017-Dec-01 16:00N 44°12' W 086°36'1212.0 200 / 101023.5 6.1 7.3
2017-Dec-01 15:00N 44°24' W 086°36'1312.7 220 / 71023.2 5.9 7.6
2017-Dec-01 14:00N 44°36' W 086°30'1312.7 220 / 101022.8 5.8 7.9
2017-Dec-01 13:00N 44°48' W 086°24'1212.0 230 / 101022.1 5.1 8.0
2017-Dec-01 12:00N 45°00' W 086°24'1312.7 180 / 131021.8 5.1 7.9
2017-Dec-01 11:00N 45°12' W 086°18'3411.5 220 / 41021.5 4.3 8.3
2017-Dec-01 08:00N 45°42' W 085°54'1010.3 290 / 101020.4 3.0 6.9
2017-Dec-01 07:00N 45°48' W 085°42'1413.9 300 / 91019.4 2.9 6.2
2017-Dec-01 06:00N 45°54' W 085°24'7 9.5 300 / 131019.1 3.4 5.7
2017-Dec-01 05:16N 45°52' W 085°14'311.1
2017-Dec-01 05:00N 45°52' W 085°10'2177.6
2017-Dec-01 05:00N 45°54' W 085°12'815.5 290 / 161018.4 4.0 4.9
2017-Dec-01 04:30N 45°51' W 085°02'611.3
2017-Dec-01 04:00N 45°50' W 084°54'2169.1
2017-Dec-01 04:00N 45°48' W 084°54'611.4 280 / 141017.4 4.2 4.8
2017-Dec-01 03:30N 45°49' W 084°46'510.0
2017-Dec-01 03:00N 45°50' W 084°39'3214.5
2017-Dec-01 03:00N 45°48' W 084°42'815.7 280 / 141016.7 3.9 4.9
2017-Dec-01 02:30N 45°52' W 084°32'611.4
2017-Dec-01 02:00N 45°52' W 084°24'2130.8
2017-Dec-01 02:00N 45°54' W 084°24'1312.5 280 / 201015.0 4.1 5.5
2017-Dec-01 01:00N 45°54' W 084°06'8 8.4 270 / 251014.3 3.8 5.1
2017-Dec-01 00:00N 45°54' W 083°54'1312.7 290 / 211013.7 3.0 4.1
2017-Nov-30 23:00N 46°06' W 084°00'7 7.3 290 / 231012.3 2.7 3.5
2017-Nov-30 22:00N 46°12' W 084°06'7 7.3 280 / 141011.6 2.8 3.8
2017-Nov-30 21:00N 46°18' W 084°12'7 7.3 300 / 101010.3 2.9 4.2
2017-Nov-30 20:00N 46°24' W 084°18'6 6.0 300 / 201008.3 3.6 4.4
2017-Nov-30 19:00N 46°30' W 084°18'4 4.1 280 / 141007.2 3.0 4.7
2017-Nov-30 18:00N 46°30' W 084°24'0 0.0 280 / 101006.4 3.4 4.6
2017-Nov-30 17:00N 46°30' W 084°24'0 0.0 270 / 161006.4 4.0 4.8
2017-Nov-30 16:00N 46°30' W 084°24'0 0.0 250 / 121006.1 5.0 4.7
2017-Nov-30 15:00N 46°30' W 084°24'8 8.3 190 / 101006.4 4.6 5.0
2017-Nov-30 14:00N 46°30' W 084°36'7 7.3 140 / 101006.8 4.3 5.5
2017-Nov-30 13:00N 46°36' W 084°42'7 7.3 160 / 121006.8 3.6 6.0
2017-Nov-30 12:00N 46°42' W 084°48'1010.2 170 / 211006.1 3.9 5.5
2017-Nov-30 11:00N 46°48' W 085°00'1413.7 150 / 271005.8 3.4 5.2
2017-Nov-30 10:00N 46°54' W 085°18'1212.3 170 / 171007.5 3.4 5.1
2017-Nov-30 09:00N 46°54' W 085°36'1212.3 170 / 261007.8 4.3 4.9
2017-Nov-30 08:00N 46°54' W 085°54'1212.3 200 / 301009.1 4.5 5.3
2017-Nov-30 07:00N 46°54' W 086°12'1212.3 200 / 341010.5 3.9 5.1
2017-Nov-30 06:00N 46°54' W 086°30'1212.3 180 / 321011.2 3.3 4.8
2017-Nov-30 05:00N 46°54' W 086°48'1212.3 200 / 341013.2 2.3 4.6
2017-Nov-30 04:00N 46°54' W 087°06'8 8.2 180 / 351013.9 1.9 4.7
2017-Nov-30 03:00N 46°54' W 087°18'1514.5 180 / 331013.9 1.4 5.3
2017-Nov-30 02:00N 47°06' W 087°30'7 7.3 170 / 281015.6 1.2 5.3
2017-Nov-30 01:00N 47°12' W 087°36'1312.7 170 / 241017.3 1.4 5.0
2017-Nov-30 00:00N 47°24' W 087°42'7 7.2 180 / 271017.3 2.3 5.0
2017-Nov-29 23:00N 47°30' W 087°48'1413.5 150 / 251016.9 2.4 4.8
2017-Nov-29 22:00N 47°36' W 088°06'1413.5 140 / 171018.3 1.7 4.3
2017-Nov-29 21:00N 47°30' W 088°24'1212.2 130 / 121020.0 1.1 4.0
2017-Nov-29 20:00N 47°30' W 088°42'1212.2 120 / 111020.7 1.5 4.1
2017-Nov-29 19:00N 47°30' W 089°00'1413.6 140 / 61023.0 0.4 4.3
2017-Nov-29 18:00N 47°24' W 089°18'1212.2 180 / 121024.4 -1.0 4.0
2017-Nov-29 17:00N 47°24' W 089°36'1413.6 180 / 111025.4 -1.3 4.2
2017-Nov-29 16:00N 47°18' W 089°54'1212.2 200 / 91026.1 -1.8 3.7
2017-Nov-29 15:00N 47°18' W 090°12'1413.6 200 / 71026.8 -2.3 3.5
2017-Nov-29 14:00N 47°12' W 090°30'1212.2 220 / 51026.4 -3.1 3.4
2017-Nov-29 13:00N 47°12' W 090°48'1010.1 300 / 11025.7 -3.8 3.8
2017-Nov-29 12:00N 47°06' W 091°00'1413.7 260 / 61026.1 -4.1 3.8
2017-Nov-29 11:00N 47°00' W 091°18'1114.8 280 / 81027.1 -4.3 3.7
2017-Nov-29 10:15N 46°54' W 091°31'312.5
2017-Nov-29 10:00N 46°52' W 091°35'2126.6
2017-Nov-29 10:00N 46°54' W 091°36'713.9 250 / 111027.4 -4.3 3.6
2017-Nov-29 09:30N 46°49' W 091°43'612.4
2017-Nov-29 09:00N 46°46' W 091°51'3188.3
2017-Nov-29 09:00N 46°48' W 091°48'917.9 300 / 51027.4 -4.3 3.2
2017-Nov-29 08:30N 46°43' W 091°59'2 4.2
2017-Nov-29 08:00N 46°42' W 092°01'148.3
2017-Nov-29 08:00N 46°42' W 092°00'1 1.4 250 / 41027.1 -4.3 0.1
2017-Nov-29 07:27N 46°42' W 092°01'1 1.7
2017-Nov-29 07:00N 46°42' W 092°00'116.7 330 / 41026.4 -3.8 0.2
2017-Nov-29 06:57N 46°42' W 092°01'0 0.0
2017-Nov-29 06:30N 46°42' W 092°01'1 1.6
2017-Nov-29 06:00N 46°42' W 092°00'116.9 300 / 31025.7 -3.4 0.2
2017-Nov-29 05:57N 46°42' W 092°01'0 0.0
2017-Nov-29 05:27N 46°42' W 092°01'0 0.0
2017-Nov-29 05:00N 46°42' W 092°01'1166.3
2017-Nov-29 05:00N 46°42' W 092°00'1 1.6 330 / 81024.7 -3.2 0.1
2017-Nov-29 04:30N 46°42' W 092°01'0 0.0
2017-Nov-29 04:00N 46°42' W 092°01'1258.7
2017-Nov-29 04:00N 46°42' W 092°00'1 1.4 330 / 41024.0 -2.6 0.1
2017-Nov-29 03:27N 46°42' W 092°01'0 0.0
2017-Nov-29 03:00N 46°42' W 092°01'1217.8
2017-Nov-29 03:00N 46°42' W 092°00'1 1.6 350 / 141022.4 -1.9 0.2
2017-Nov-29 02:30N 46°42' W 092°01'0 0.0
2017-Nov-29 02:00N 46°42' W 092°01'1257.4
2017-Nov-29 02:00N 46°42' W 092°00'1 1.6 330 / 151021.0 -0.9 0.3
2017-Nov-29 01:30N 46°42' W 092°01'0 0.0
2017-Nov-29 01:00N 46°42' W 092°01'1166.3
2017-Nov-29 01:00N 46°42' W 092°00'1 1.6 340 / 201019.3 0.3 0.8
2017-Nov-29 00:30N 46°42' W 092°01'0 0.0
2017-Nov-29 00:00N 46°42' W 092°01'1235.9
2017-Nov-29 00:00N 46°42' W 092°00'1 1.4 360 / 181016.6 2.5 0.3
2017-Nov-28 23:27N 46°42' W 092°01'0 0.0
2017-Nov-28 23:00N 46°42' W 092°01'1353.9
2017-Nov-28 23:00N 46°42' W 092°00'1 1.6 300 / 161014.6 4.9 0.2
2017-Nov-28 22:30N 46°42' W 092°01'0 0.0
2017-Nov-28 22:00N 46°42' W 092°01'1311.3
2017-Nov-28 22:00N 46°42' W 092°00'1 1.4 1013.2 5.8 0.2
2017-Nov-28 21:27N 46°42' W 092°01'0 0.0
2017-Nov-28 21:00N 46°42' W 092°01'1257.4
2017-Nov-28 21:00N 46°42' W 092°00'1 1.2 290 / 91011.9 7.1 0.2
2017-Nov-28 20:21N 46°42' W 092°01'1 2.2
2017-Nov-28 20:00N 46°42' W 092°00'1 2.0 280 / 151010.2 7.5 0.2
2017-Nov-28 19:36N 46°42' W 092°01'0 0.0
2017-Nov-28 19:30N 46°42' W 092°01'0 0.0
2017-Nov-28 19:00N 46°42' W 092°01'1469.4
2017-Nov-28 19:00N 46°42' W 092°00'1 1.4 330 / 161009.1 8.1 0.2
2017-Nov-28 18:27N 46°42' W 092°01'0 0.3
2017-Nov-28 18:00N 46°42' W 092°01'151.6
2017-Nov-28 18:00N 46°42' W 092°00'3 7.0 250 / 121008.8 8.7 -0.0
2017-Nov-28 17:30N 46°44' W 092°04'2 3.8
2017-Nov-28 17:00N 46°46' W 092°06'2157.9
2017-Nov-28 17:00N 46°48' W 092°06'2 4.1 260 / 181008.1 7.7 0.5
2017-Nov-28 16:27N 46°46' W 092°06'2 5.0
2017-Nov-28 16:00N 46°48' W 092°06'247.8 260 / 121008.1 6.2 1.0
2017-Nov-28 15:57N 46°46' W 092°06'2 2.4
2017-Nov-28 15:00N 46°48' W 092°06'   240 / 131007.1 5.6 1.2
Track history (hours):
 
Tides and Currents Weather Stations Pressure Air Temp Water Temp Dewpoint Dewpoint Depression Visibility Wind Speed Wind Dir Waves Ship Positions

Stewart J. Cort

Owner: THE INTERLAKE STEAMSHIP COMPANY, Middleburg Heights, OH. More information available from US FCC via Universal Licensing System and Coast Guard Vessel Documentation Center.

Last reported at 2017-Dec-08 15:00 UTC. Time now 2017-Dec-11 04:15 UTC.
Position N 45°06' W 086°54'.

Length 305 m; draft 8.6 m.

Type: Cargo ship. MMSI: 367050550.

Wind from 290 at 21 knots

Barometer 1009.9 mb
Air temperature -4.1 ° C
Water temperature 5.4 ° C

Date/timePositionNaut miles runAvg speedWind from/ knotsBaromVisibWave heightAir tempDewpointWater temp
2017-Dec-08 15:00N 45°06' W 086°54'7 7.3 290 / 211009.9 -4.1 5.4
2017-Dec-08 14:00N 45°12' W 086°48'1312.7 280 / 231009.3 -4.0 4.6
2017-Dec-08 13:00N 45°24' W 086°42'7 7.3 290 / 281008.3 -4.0 4.3
2017-Dec-08 12:00N 45°30' W 086°36'1010.3 280 / 221007.9 -4.1 6.1
2017-Dec-08 11:00N 45°36' W 086°24'1 7.5 270 / 211007.6 -4.0 7.1
2017-Dec-08 10:55N 45°36' W 086°25'3 8.4
2017-Dec-08 10:30N 45°37' W 086°20'4 8.3
2017-Dec-08 10:00N 45°40' W 086°15'3188.8
2017-Dec-08 10:00N 45°42' W 086°18'510.7 270 / 231007.6 -4.3 6.4
2017-Dec-08 09:30N 45°42' W 086°11'4 8.4
2017-Dec-08 09:00N 45°44' W 086°06'2155.0
2017-Dec-08 09:00N 45°42' W 086°06'612.4 260 / 201007.6 -4.3 6.2
2017-Dec-08 08:30N 45°47' W 086°00'4 8.5
2017-Dec-08 08:00N 45°48' W 085°55'147.1
2017-Dec-08 08:00N 45°48' W 085°54'4 7.8 260 / 211007.6 -4.6 5.7
2017-Dec-08 07:30N 45°50' W 085°49'4 8.4
2017-Dec-08 07:00N 45°52' W 085°44'3176.3
2017-Dec-08 07:00N 45°54' W 085°42'3 6.1 270 / 221007.6 -4.3 5.1
2017-Dec-08 06:30N 45°53' W 085°38'611.2
2017-Dec-08 06:00N 45°54' W 085°30'023.1
2017-Dec-08 06:00N 45°54' W 085°30'612.1 260 / 251007.6 -3.3 5.0
2017-Dec-08 05:30N 45°53' W 085°22'611.6
2017-Dec-08 05:00N 45°52' W 085°13'2124.9
2017-Dec-08 05:00N 45°54' W 085°12'611.5 260 / 201008.6 -2.8 4.1
2017-Dec-08 04:30N 45°52' W 085°05'611.8
2017-Dec-08 04:00N 45°50' W 084°57'3231.2
2017-Dec-08 04:00N 45°48' W 085°00'817.0 250 / 201009.3 -2.7 4.1
2017-Dec-08 03:30N 45°49' W 084°48'611.2
2017-Dec-08 03:00N 45°50' W 084°40'2124.4
2017-Dec-08 03:00N 45°48' W 084°42'714.1 250 / 211009.6 -2.5 4.9
2017-Dec-08 02:30N 45°51' W 084°33'611.9
2017-Dec-08 02:00N 45°52' W 084°25'2123.0
2017-Dec-08 02:00N 45°54' W 084°24'510.8 260 / 201010.6 -2.7 5.3
2017-Dec-08 01:30N 45°53' W 084°17'611.5
2017-Dec-08 01:00N 45°54' W 084°08'3168.5
2017-Dec-08 01:00N 45°54' W 084°12'816.8 260 / 201011.0 -2.8 5.0
2017-Dec-08 00:30N 45°55' W 084°00'510.1
2017-Dec-08 00:00N 45°57' W 083°54'3220.2
2017-Dec-08 00:00N 45°54' W 083°54'1212.3 280 / 191011.3 -3.2 3.9
2017-Dec-07 23:03N 46°05' W 084°01'010.5
2017-Dec-07 23:00N 46°05' W 084°01'199.2
2017-Dec-07 23:00N 46°06' W 084°00'7 7.3 270 / 121012.0 -4.8 2.6
2017-Dec-07 22:00N 46°12' W 084°06'319.0 250 / 201012.0 -4.5 2.7
2017-Dec-07 21:49N 46°13' W 084°10'5 5.8
2017-Dec-07 21:00N 46°18' W 084°12'210.6 270 / 81011.6 -4.8 3.1
2017-Dec-07 20:46N 46°20' W 084°13'5 6.6
2017-Dec-07 20:00N 46°24' W 084°18'6 6.0 270 / 151011.0 -4.7 3.4
2017-Dec-07 19:00N 46°30' W 084°18'4 4.1 280 / 111011.0 -3.8 3.8
2017-Dec-07 18:00N 46°30' W 084°24'0 0.0 330 / 71011.5 -3.9 3.8
2017-Dec-07 17:00N 46°30' W 084°24'0 0.0 020 / 11012.2 -5.5 3.8
2017-Dec-07 16:00N 46°30' W 084°24'4 4.1 210 / 21012.9 -6.8 3.8
2017-Dec-07 15:00N 46°30' W 084°30'1010.2 190 / 31012.5 -6.6 4.5
2017-Dec-07 14:00N 46°36' W 084°42'1010.2 330 / 131012.5 -4.0 5.3
2017-Dec-07 13:00N 46°42' W 084°54'1514.5 330 / 161012.5 -4.5 5.3
2017-Dec-07 12:00N 46°54' W 085°06'1010.2 340 / 191012.2 -5.0 4.7
2017-Dec-07 11:00N 47°00' W 085°18'1413.7 340 / 171012.2 -5.2 4.6
2017-Dec-07 10:00N 47°06' W 085°36'7412.4 340 / 171012.2 -5.0 4.6
2017-Dec-07 04:00N 47°42' W 087°12'1010.1 340 / 251012.5 -5.0 4.0
2017-Dec-07 03:00N 47°48' W 087°24'1313.5 320 / 251012.5 -5.5 4.2
2017-Dec-07 02:00N 47°54' W 087°42'1010.0 330 / 221012.9 -6.0 3.9
2017-Dec-07 01:00N 48°00' W 087°54'1212.0 330 / 231012.5 -6.3 4.0
2017-Dec-07 00:00N 48°00' W 088°12'1212.0 340 / 351011.2 -6.6 4.1
2017-Dec-06 23:00N 48°00' W 088°30'1010.0 320 / 301011.5 -6.5 4.1
2017-Dec-06 22:00N 47°54' W 088°42'1313.5 320 / 301010.8 -5.6 4.3
2017-Dec-06 21:00N 47°48' W 089°00'1413.5 330 / 241010.5 -6.0 4.2
2017-Dec-06 20:00N 47°42' W 089°18'1212.1 320 / 221009.8 -6.4 4.3
2017-Dec-06 19:00N 47°42' W 089°36'1212.1 340 / 221009.5 -6.4 4.4
2017-Dec-06 18:00N 47°42' W 089°54'1212.1 320 / 231009.5 -7.0 4.4
2017-Dec-06 17:00N 47°42' W 090°12'1413.5 300 / 181009.5 -7.7 4.4
2017-Dec-06 16:00N 47°36' W 090°30'1010.1 300 / 201009.8 -8.2 4.3
2017-Dec-06 15:00N 47°30' W 090°42'1413.6 300 / 201009.5 -9.5 4.3
2017-Dec-06 14:00N 47°24' W 091°00'1010.1 310 / 191009.1 -9.4 4.2
2017-Dec-06 13:00N 47°18' W 091°12'3912.9 300 / 181009.5 -10.1 4.2
2017-Dec-06 10:00N 46°48' W 091°48'1010.2 300 / 221008.8 -8.7 3.3
2017-Dec-06 09:00N 46°42' W 092°00'0 0.0 260 / 91009.1 -8.3 -0.0
2017-Dec-06 08:00N 46°42' W 092°00'0 0.0 260 / 81008.5 -8.1 0.3
2017-Dec-06 07:00N 46°42' W 092°00'0 0.0 350 / 61007.8 -7.7 0.4
2017-Dec-06 06:00N 46°42' W 092°00'0 0.0 270 / 101007.8 -7.8 0.3
2017-Dec-06 05:00N 46°42' W 092°00'0 0.0 290 / 41007.5 -7.9 0.4
2017-Dec-06 04:00N 46°42' W 092°00'0 0.0 190 / 61007.5 -7.9 0.4
2017-Dec-06 03:00N 46°42' W 092°00'0 0.0 240 / 91007.1 -8.2 0.4
2017-Dec-06 02:00N 46°42' W 092°00'0 0.0 240 / 111007.1 -8.6 0.5
2017-Dec-06 01:00N 46°42' W 092°00'0 0.0 310 / 91007.5 -8.7 0.4
2017-Dec-06 00:00N 46°42' W 092°00'0 0.0 220 / 81006.8 -8.5 0.6
2017-Dec-05 23:00N 46°42' W 092°00'0 0.0 330 / 131007.5 -8.5 1.1
2017-Dec-05 22:00N 46°42' W 092°00'0 0.0 290 / 81006.4 -7.7 0.5
2017-Dec-05 21:00N 46°42' W 092°00'0 0.0 300 / 101005.8 -8.0 1.3
2017-Dec-05 20:00N 46°42' W 092°00'0 0.0 210 / 101005.8 -8.1 0.5
2017-Dec-05 19:00N 46°42' W 092°00'0 0.0 010 / 121004.7 -8.4 1.0
2017-Dec-05 18:00N 46°42' W 092°00'0 0.0 290 / 121004.1 -8.5 0.8
2017-Dec-05 17:00N 46°42' W 092°00'0 0.0 290 / 141004.1 -8.9 0.8
2017-Dec-05 16:00N 46°42' W 092°00'0 0.0 230 / 111003.7 -8.8 1.3
2017-Dec-05 15:00N 46°42' W 092°00'0 0.0 230 / 101002.7 -8.5 0.7
2017-Dec-05 14:00N 46°42' W 092°00'0 0.0 330 / 101002.0 -7.4 0.6
2017-Dec-05 13:00N 46°42' W 092°00'0 0.0 280 / 171001.0 -6.5 0.6
2017-Dec-05 12:00N 46°42' W 092°00'1010.2 310 / 22999.0 -5.2 3.1
2017-Dec-05 11:00N 46°48' W 091°48'1010.2 260 / 31996.6 -4.6 3.7
2017-Dec-05 10:00N 46°54' W 091°36'1413.7 270 / 32994.2 -3.0 4.5
2017-Dec-05 09:00N 47°00' W 091°18'1010.1 290 / 40991.5 -2.1 4.4
2017-Dec-05 08:00N 47°06' W 091°06'1413.6 270 / 33989.2 -0.9 4.0
2017-Dec-05 07:00N 47°12' W 090°48'1212.2 280 / 32987.1 0.6 3.8
2017-Dec-05 06:00N 47°12' W 090°30'1413.6 280 / 24985.4 2.2 3.8
2017-Dec-05 05:00N 47°18' W 090°12'1413.6 290 / 19984.4 4.7 4.4
2017-Dec-05 04:00N 47°24' W 089°54'1413.6 300 / 15985.1 5.1 4.5
2017-Dec-05 03:00N 47°30' W 089°36'1212.2 230 / 15985.1 8.1 4.6
2017-Dec-05 02:00N 47°30' W 089°18'1212.2 160 / 16986.8 6.7 4.5
2017-Dec-05 01:00N 47°30' W 089°00'1212.2 130 / 18988.8 5.9 4.6
2017-Dec-05 00:00N 47°30' W 088°42'1616.2 100 / 11990.9 5.6 4.3
2017-Dec-04 23:00N 47°30' W 088°18'1212.2 130 / 13992.9 6.3 4.5
2017-Dec-04 22:00N 47°30' W 088°00'1212.2 140 / 5994.9 6.5 4.7
2017-Dec-04 21:00N 47°30' W 087°42'1818.5 150 / 12996.6 5.9 4.9
2017-Dec-04 20:00N 47°12' W 087°36'1010.1 140 / 12997.3 6.0 5.5
2017-Dec-04 19:00N 47°06' W 087°24'1413.7 140 / 14998.6 5.7 5.3
2017-Dec-04 18:00N 47°00' W 087°06'1413.7 130 / 161000.3 5.2 4.5
2017-Dec-04 17:00N 46°54' W 086°48'1212.3 140 / 171002.7 5.2 4.6
2017-Dec-04 16:00N 46°54' W 086°30'1413.7 130 / 181004.7 5.1 4.8
2017-Dec-04 15:00N 46°48' W 086°12'1212.3 130 / 201006.8 4.7 5.2
2017-Dec-04 14:00N 46°48' W 085°54'1616.4 120 / 181009.1 5.1 5.3
2017-Dec-04 13:00N 46°48' W 085°30'1212.3 140 / 251009.5 5.3 5.3
2017-Dec-04 12:00N 46°48' W 085°12'1212.3 120 / 201012.2 4.3 4.7
2017-Dec-04 11:00N 46°48' W 084°54'1312.7 130 / 201013.5 5.4 5.7
2017-Dec-04 10:00N 46°36' W 084°48'1413.8 130 / 331015.6 4.1 5.9
2017-Dec-04 09:00N 46°30' W 084°30'4 4.1 120 / 171017.6 3.2 5.4
2017-Dec-04 08:00N 46°30' W 084°24'4 4.1 110 / 91019.3 3.3 5.1
2017-Dec-04 07:00N 46°30' W 084°18'0 0.0 110 / 61019.8 3.7 5.1
2017-Dec-04 06:00N 46°30' W 084°18'6 6.0 090 / 121020.4 3.0 5.0
2017-Dec-04 05:00N 46°24' W 084°18'1010.2 110 / 51021.1 2.4 5.0
2017-Dec-04 04:00N 46°18' W 084°06'6 6.0 110 / 81020.4 2.5 4.8
2017-Dec-04 03:00N 46°12' W 084°06'7 7.3 140 / 161020.4 3.0 4.3
2017-Dec-04 02:00N 46°06' W 084°00'1312.7 130 / 81020.8 2.9 3.1
2017-Dec-04 01:00N 45°54' W 083°54'1013.7 130 / 81021.1 4.3 4.9
2017-Dec-04 00:15N 45°52' W 084°08'313.3
2017-Dec-04 00:00N 45°52' W 084°13'2152.2
2017-Dec-04 00:00N 45°54' W 084°12'816.0 110 / 41021.1 4.6 5.7
2017-Dec-03 23:30N 45°51' W 084°23'713.3
2017-Dec-03 23:00N 45°51' W 084°32'3210.8
2017-Dec-03 23:00N 45°48' W 084°30'816.0 270 / 21021.1 4.3 5.6
2017-Dec-03 22:30N 45°49' W 084°41'713.2
2017-Dec-03 22:00N 45°49' W 084°50'2137.9
2017-Dec-03 22:00N 45°48' W 084°48'917.6 260 / 81020.8 4.2 4.9
2017-Dec-03 21:30N 45°50' W 085°00'611.7
2017-Dec-03 21:00N 45°49' W 085°08'2127.6
2017-Dec-03 21:00N 45°48' W 085°06'511.0 190 / 131020.8 4.5 4.9
2017-Dec-03 20:30N 45°44' W 085°11'713.5
2017-Dec-03 20:00N 45°38' W 085°17'4252.0
2017-Dec-03 20:00N 45°42' W 085°18'919.5 210 / 111020.8 4.1 7.0
2017-Dec-03 19:30N 45°33' W 085°22'713.6
2017-Dec-03 19:00N 45°28' W 085°28'3191.5
2017-Dec-03 19:00N 45°30' W 085°30'817.1 210 / 121020.8 3.2 7.9
2017-Dec-03 18:30N 45°22' W 085°34'713.5
2017-Dec-03 18:00N 45°17' W 085°40'2118.1
2017-Dec-03 18:00N 45°18' W 085°42'714.2 160 / 121020.8 3.4 8.0
2017-Dec-03 17:30N 45°12' W 085°46'713.4
2017-Dec-03 17:00N 45°06' W 085°51'2162.8
2017-Dec-03 17:00N 45°06' W 085°48'1414.1 150 / 111020.4 4.2 7.6
2017-Dec-03 16:00N 45°00' W 086°06'1514.7 120 / 151021.1 5.6 7.3
2017-Dec-03 15:00N 44°48' W 086°18'1312.7 180 / 61021.8 5.3 7.3
2017-Dec-03 14:00N 44°36' W 086°24'1312.7 300 / 61021.5 5.8 7.8
2017-Dec-03 13:00N 44°24' W 086°30'1312.7 320 / 61021.1 4.9 7.4
2017-Dec-03 12:00N 44°12' W 086°36'1212.0 290 / 71020.8 5.3 7.1
2017-Dec-03 11:00N 44°00' W 086°36'1918.5 280 / 91020.8 5.7 7.5
2017-Dec-03 10:00N 43°42' W 086°42'1212.0 290 / 81020.1 6.3 7.9
2017-Dec-03 09:00N 43°30' W 086°42'1312.8 300 / 91019.8 6.4 8.0
2017-Dec-03 08:00N 43°18' W 086°48'9113.0 300 / 101020.4 6.7 7.5
2017-Dec-03 01:00N 41°48' W 087°06'1212.0 250 / 101020.1 9.9 8.3
2017-Dec-03 00:00N 41°36' W 087°06'0 0.0 230 / 51019.8 10.9 8.0
2017-Dec-02 23:00N 41°36' W 087°06'0 0.0 190 / 31018.8 11.2 7.5
2017-Dec-02 22:00N 41°36' W 087°06'0 0.0 190 / 71018.8 12.0 7.6
2017-Dec-02 21:00N 41°36' W 087°06'0 0.0 250 / 61019.1 13.0 7.6
2017-Dec-02 20:00N 41°36' W 087°06'0 0.0 200 / 91019.1 12.8 7.7
2017-Dec-02 19:00N 41°36' W 087°06'0 0.0 180 / 81019.1 12.8 7.8
2017-Dec-02 18:00N 41°36' W 087°06'0 0.0 160 / 61019.4 11.8 7.8
2017-Dec-02 17:00N 41°36' W 087°06'0 0.0 190 / 81020.1 10.1 7.8
2017-Dec-02 16:00N 41°36' W 087°06'0 0.0 200 / 111021.1 8.8 7.8
2017-Dec-02 15:00N 41°36' W 087°06'0 0.0 170 / 101021.5 6.2 7.8
2017-Dec-02 14:00N 41°36' W 087°06'0 0.0 170 / 101021.8 3.9 7.8
2017-Dec-02 13:00N 41°36' W 087°06'0 0.0 160 / 111021.1 4.0 8.0
2017-Dec-02 12:00N 41°36' W 087°06'0 0.0 170 / 101021.1 4.0 8.0
2017-Dec-02 11:00N 41°36' W 087°06'0 0.0 180 / 111021.1 3.7 7.9
2017-Dec-02 10:00N 41°36' W 087°06'0 0.0 160 / 101021.8 3.0 7.9
2017-Dec-02 09:00N 41°36' W 087°06'0 0.0 170 / 101021.8 3.0 8.0
2017-Dec-02 08:00N 41°36' W 087°06'0 0.0 170 / 81022.5 3.6 7.9
2017-Dec-02 07:00N 41°36' W 087°06'0 0.0 180 / 81022.1 3.5 7.9
2017-Dec-02 06:00N 41°36' W 087°06'0 0.0 170 / 71022.5 3.9 8.1
2017-Dec-02 05:00N 41°36' W 087°06'1212.0 180 / 71022.8 5.1 7.6
2017-Dec-02 04:00N 41°48' W 087°06'1212.0 170 / 101022.1 5.4 7.1 8.6
2017-Dec-02 03:00N 42°00' W 087°06'10912.1 180 / 101021.8 8.3 7.8
2017-Dec-01 18:00N 43°48' W 086°48'1312.8 200 / 131022.8 6.4 8.2
2017-Dec-01 17:00N 44°00' W 086°42'1312.8 210 / 111023.2 6.2 7.5
2017-Dec-01 16:00N 44°12' W 086°36'1212.0 200 / 101023.5 6.1 7.3
2017-Dec-01 15:00N 44°24' W 086°36'1312.7 220 / 71023.2 5.9 7.6
2017-Dec-01 14:00N 44°36' W 086°30'1312.7 220 / 101022.8 5.8 7.9
2017-Dec-01 13:00N 44°48' W 086°24'1212.0 230 / 101022.1 5.1 8.0
2017-Dec-01 12:00N 45°00' W 086°24'1312.7 180 / 131021.8 5.1 7.9
2017-Dec-01 11:00N 45°12' W 086°18'3411.5 220 / 41021.5 4.3 8.3
2017-Dec-01 08:00N 45°42' W 085°54'1010.3 290 / 101020.4 3.0 6.9
2017-Dec-01 07:00N 45°48' W 085°42'1413.9 300 / 91019.4 2.9 6.2
2017-Dec-01 06:00N 45°54' W 085°24'7 9.5 300 / 131019.1 3.4 5.7
2017-Dec-01 05:16N 45°52' W 085°14'311.1
2017-Dec-01 05:00N 45°52' W 085°10'2177.6
2017-Dec-01 05:00N 45°54' W 085°12'815.5 290 / 161018.4 4.0 4.9
2017-Dec-01 04:30N 45°51' W 085°02'611.3
2017-Dec-01 04:00N 45°50' W 084°54'2169.1
2017-Dec-01 04:00N 45°48' W 084°54'611.4 280 / 141017.4 4.2 4.8
2017-Dec-01 03:30N 45°49' W 084°46'510.0
2017-Dec-01 03:00N 45°50' W 084°39'3214.5
2017-Dec-01 03:00N 45°48' W 084°42'815.7 280 / 141016.7 3.9 4.9
2017-Dec-01 02:30N 45°52' W 084°32'611.4
2017-Dec-01 02:00N 45°52' W 084°24'2130.8
2017-Dec-01 02:00N 45°54' W 084°24'1312.5 280 / 201015.0 4.1 5.5
2017-Dec-01 01:00N 45°54' W 084°06'8 8.4 270 / 251014.3 3.8 5.1
2017-Dec-01 00:00N 45°54' W 083°54'1312.7 290 / 211013.7 3.0 4.1
2017-Nov-30 23:00N 46°06' W 084°00'7 7.3 290 / 231012.3 2.7 3.5
2017-Nov-30 22:00N 46°12' W 084°06'7 7.3 280 / 141011.6 2.8 3.8
2017-Nov-30 21:00N 46°18' W 084°12'7 7.3 300 / 101010.3 2.9 4.2
2017-Nov-30 20:00N 46°24' W 084°18'6 6.0 300 / 201008.3 3.6 4.4
2017-Nov-30 19:00N 46°30' W 084°18'4 4.1 280 / 141007.2 3.0 4.7
2017-Nov-30 18:00N 46°30' W 084°24'0 0.0 280 / 101006.4 3.4 4.6
2017-Nov-30 17:00N 46°30' W 084°24'0 0.0 270 / 161006.4 4.0 4.8
2017-Nov-30 16:00N 46°30' W 084°24'0 0.0 250 / 121006.1 5.0 4.7
2017-Nov-30 15:00N 46°30' W 084°24'8 8.3 190 / 101006.4 4.6 5.0
2017-Nov-30 14:00N 46°30' W 084°36'7 7.3 140 / 101006.8 4.3 5.5
2017-Nov-30 13:00N 46°36' W 084°42'7 7.3 160 / 121006.8 3.6 6.0
2017-Nov-30 12:00N 46°42' W 084°48'1010.2 170 / 211006.1 3.9 5.5
2017-Nov-30 11:00N 46°48' W 085°00'1413.7 150 / 271005.8 3.4 5.2
2017-Nov-30 10:00N 46°54' W 085°18'1212.3 170 / 171007.5 3.4 5.1
2017-Nov-30 09:00N 46°54' W 085°36'1212.3 170 / 261007.8 4.3 4.9
2017-Nov-30 08:00N 46°54' W 085°54'1212.3 200 / 301009.1 4.5 5.3
2017-Nov-30 07:00N 46°54' W 086°12'1212.3 200 / 341010.5 3.9 5.1
2017-Nov-30 06:00N 46°54' W 086°30'1212.3 180 / 321011.2 3.3 4.8
2017-Nov-30 05:00N 46°54' W 086°48'1212.3 200 / 341013.2 2.3 4.6
2017-Nov-30 04:00N 46°54' W 087°06'8 8.2 180 / 351013.9 1.9 4.7
2017-Nov-30 03:00N 46°54' W 087°18'1514.5 180 / 331013.9 1.4 5.3
2017-Nov-30 02:00N 47°06' W 087°30'7 7.3 170 / 281015.6 1.2 5.3
2017-Nov-30 01:00N 47°12' W 087°36'1312.7 170 / 241017.3 1.4 5.0
2017-Nov-30 00:00N 47°24' W 087°42'7 7.2 180 / 271017.3 2.3 5.0
2017-Nov-29 23:00N 47°30' W 087°48'1413.5 150 / 251016.9 2.4 4.8
2017-Nov-29 22:00N 47°36' W 088°06'1413.5 140 / 171018.3 1.7 4.3
2017-Nov-29 21:00N 47°30' W 088°24'1212.2 130 / 121020.0 1.1 4.0
2017-Nov-29 20:00N 47°30' W 088°42'1212.2 120 / 111020.7 1.5 4.1
2017-Nov-29 19:00N 47°30' W 089°00'1413.6 140 / 61023.0 0.4 4.3
2017-Nov-29 18:00N 47°24' W 089°18'1212.2 180 / 121024.4 -1.0 4.0
2017-Nov-29 17:00N 47°24' W 089°36'1413.6 180 / 111025.4 -1.3 4.2
2017-Nov-29 16:00N 47°18' W 089°54'1212.2 200 / 91026.1 -1.8 3.7
2017-Nov-29 15:00N 47°18' W 090°12'1413.6 200 / 71026.8 -2.3 3.5
2017-Nov-29 14:00N 47°12' W 090°30'1212.2 220 / 51026.4 -3.1 3.4
2017-Nov-29 13:00N 47°12' W 090°48'1010.1 300 / 11025.7 -3.8 3.8
2017-Nov-29 12:00N 47°06' W 091°00'1413.7 260 / 61026.1 -4.1 3.8
2017-Nov-29 11:00N 47°00' W 091°18'1114.8 280 / 81027.1 -4.3 3.7
2017-Nov-29 10:15N 46°54' W 091°31'312.5
2017-Nov-29 10:00N 46°52' W 091°35'2126.6
2017-Nov-29 10:00N 46°54' W 091°36'713.9 250 / 111027.4 -4.3 3.6
2017-Nov-29 09:30N 46°49' W 091°43'612.4
2017-Nov-29 09:00N 46°46' W 091°51'3188.3
2017-Nov-29 09:00N 46°48' W 091°48'917.9 300 / 51027.4 -4.3 3.2
2017-Nov-29 08:30N 46°43' W 091°59'2 4.2
2017-Nov-29 08:00N 46°42' W 092°01'148.3
2017-Nov-29 08:00N 46°42' W 092°00'1 1.4 250 / 41027.1 -4.3 0.1
2017-Nov-29 07:27N 46°42' W 092°01'1 1.7
2017-Nov-29 07:00N 46°42' W 092°00'116.7 330 / 41026.4 -3.8 0.2
2017-Nov-29 06:57N 46°42' W 092°01'0 0.0
2017-Nov-29 06:30N 46°42' W 092°01'1 1.6
2017-Nov-29 06:00N 46°42' W 092°00'116.9 300 / 31025.7 -3.4 0.2
2017-Nov-29 05:57N 46°42' W 092°01'0 0.0
2017-Nov-29 05:27N 46°42' W 092°01'0 0.0
2017-Nov-29 05:00N 46°42' W 092°01'1166.3
2017-Nov-29 05:00N 46°42' W 092°00'1 1.6 330 / 81024.7 -3.2 0.1
2017-Nov-29 04:30N 46°42' W 092°01'0 0.0
2017-Nov-29 04:00N 46°42' W 092°01'1258.7
2017-Nov-29 04:00N 46°42' W 092°00'1 1.4 330 / 41024.0 -2.6 0.1
2017-Nov-29 03:27N 46°42' W 092°01'0 0.0
2017-Nov-29 03:00N 46°42' W 092°01'1217.8
2017-Nov-29 03:00N 46°42' W 092°00'1 1.6 350 / 141022.4 -1.9 0.2
2017-Nov-29 02:30N 46°42' W 092°01'0 0.0
2017-Nov-29 02:00N 46°42' W 092°01'1257.4
2017-Nov-29 02:00N 46°42' W 092°00'1 1.6 330 / 151021.0 -0.9 0.3
2017-Nov-29 01:30N 46°42' W 092°01'0 0.0
2017-Nov-29 01:00N 46°42' W 092°01'1166.3
2017-Nov-29 01:00N 46°42' W 092°00'1 1.6 340 / 201019.3 0.3 0.8
2017-Nov-29 00:30N 46°42' W 092°01'0 0.0
2017-Nov-29 00:00N 46°42' W 092°01'1235.9
2017-Nov-29 00:00N 46°42' W 092°00'1 1.4 360 / 181016.6 2.5 0.3
2017-Nov-28 23:27N 46°42' W 092°01'0 0.0
2017-Nov-28 23:00N 46°42' W 092°01'1353.9
2017-Nov-28 23:00N 46°42' W 092°00'1 1.6 300 / 161014.6 4.9 0.2
2017-Nov-28 22:30N 46°42' W 092°01'0 0.0
2017-Nov-28 22:00N 46°42' W 092°01'1311.3
2017-Nov-28 22:00N 46°42' W 092°00'1 1.4 1013.2 5.8 0.2
2017-Nov-28 21:27N 46°42' W 092°01'0 0.0
2017-Nov-28 21:00N 46°42' W 092°01'1257.4
2017-Nov-28 21:00N 46°42' W 092°00'1 1.2 290 / 91011.9 7.1 0.2
2017-Nov-28 20:21N 46°42' W 092°01'1 2.2
2017-Nov-28 20:00N 46°42' W 092°00'1 2.0 280 / 151010.2 7.5 0.2
2017-Nov-28 19:36N 46°42' W 092°01'0 0.0
2017-Nov-28 19:30N 46°42' W 092°01'0 0.0
2017-Nov-28 19:00N 46°42' W 092°01'1469.4
2017-Nov-28 19:00N 46°42' W 092°00'1 1.4 330 / 161009.1 8.1 0.2
2017-Nov-28 18:27N 46°42' W 092°01'0 0.3
2017-Nov-28 18:00N 46°42' W 092°01'151.6
2017-Nov-28 18:00N 46°42' W 092°00'3 7.0 250 / 121008.8 8.7 -0.0
2017-Nov-28 17:30N 46°44' W 092°04'2 3.8
2017-Nov-28 17:00N 46°46' W 092°06'2157.9
2017-Nov-28 17:00N 46°48' W 092°06'2 4.1 260 / 181008.1 7.7 0.5
2017-Nov-28 16:27N 46°46' W 092°06'2 5.0
2017-Nov-28 16:00N 46°48' W 092°06'247.8 260 / 121008.1 6.2 1.0
2017-Nov-28 15:57N 46°46' W 092°06'2 2.4
2017-Nov-28 15:00N 46°48' W 092°06'   240 / 131007.1 5.6 1.2

Dump ship's entire track history